createdAt,value
2018-09-12T00:00:14.659Z,21.48
2018-09-12T00:02:44.097Z,21.44
2018-09-12T00:05:13.141Z,21.38
2018-09-12T00:07:41.652Z,21.34
2018-09-12T00:10:11.089Z,21.33
2018-09-12T00:12:39.592Z,21.29
2018-09-12T00:15:08.144Z,21.26
2018-09-12T00:17:36.823Z,21.23
2018-09-12T00:20:06.004Z,21.21
2018-09-12T00:22:34.672Z,21.17
2018-09-12T00:25:04.071Z,21.16
2018-09-12T00:27:32.733Z,21.12
2018-09-12T00:30:01.875Z,21.07
2018-09-12T00:32:30.547Z,21.04
2018-09-12T00:34:59.209Z,21.03
2018-09-12T00:37:27.769Z,21.00
2018-09-12T00:39:56.789Z,20.99
2018-09-12T00:42:25.232Z,20.95
2018-09-12T00:44:53.867Z,20.92
2018-09-12T00:47:22.431Z,20.90
2018-09-12T00:49:51.018Z,20.88
2018-09-12T00:52:19.479Z,20.85
2018-09-12T00:54:47.989Z,20.79
2018-09-12T00:57:16.557Z,20.78
2018-09-12T00:59:45.161Z,20.77
2018-09-12T01:02:13.724Z,20.76
2018-09-12T01:04:42.401Z,20.74
2018-09-12T01:07:11.084Z,20.71
2018-09-12T01:09:39.708Z,20.70
2018-09-12T01:12:08.160Z,20.67
2018-09-12T01:14:37.036Z,20.65
2018-09-12T01:17:05.585Z,20.60
2018-09-12T01:19:34.758Z,20.58
2018-09-12T01:22:03.904Z,20.53
2018-09-12T01:24:32.940Z,20.49
2018-09-12T01:27:01.493Z,20.49
2018-09-12T01:29:30.079Z,20.47
2018-09-12T01:32:02.574Z,20.45
2018-09-12T01:34:31.245Z,20.42
2018-09-12T01:37:00.380Z,20.41
2018-09-12T01:39:28.992Z,20.41
2018-09-12T01:41:57.541Z,20.38
2018-09-12T01:44:26.014Z,20.36
2018-09-12T01:46:54.975Z,20.34
2018-09-12T01:49:23.426Z,20.33
2018-09-12T01:51:52.085Z,20.30
2018-09-12T01:54:20.559Z,20.26
2018-09-12T01:56:49.181Z,20.24
2018-09-12T01:59:17.892Z,20.22
2018-09-12T02:01:46.785Z,20.19
2018-09-12T02:04:15.240Z,20.16
2018-09-12T02:06:43.712Z,20.14
2018-09-12T02:09:13.980Z,20.11
2018-09-12T02:11:42.572Z,20.08
2018-09-12T02:14:11.064Z,20.07
2018-09-12T02:16:39.515Z,20.03
2018-09-12T02:19:07.929Z,19.98
2018-09-12T02:21:36.462Z,19.94
2018-09-12T02:24:05.129Z,19.94
2018-09-12T02:26:33.657Z,19.89
2018-09-12T02:29:02.436Z,19.83
2018-09-12T02:31:30.865Z,19.77
2018-09-12T02:33:59.737Z,19.77
2018-09-12T02:36:29.777Z,19.76
2018-09-12T02:38:59.754Z,19.73
2018-09-12T02:41:28.291Z,19.71
2018-09-12T02:43:56.961Z,19.71
2018-09-12T02:46:25.507Z,19.69
2018-09-12T02:48:54.177Z,19.69
2018-09-12T02:51:29.468Z,19.67
2018-09-12T02:53:58.426Z,19.62
2018-09-12T02:56:26.870Z,19.59
2018-09-12T02:59:02.181Z,19.59
2018-09-12T03:01:30.858Z,19.56
2018-09-12T03:04:00.326Z,19.54
2018-09-12T03:06:29.396Z,19.53
2018-09-12T03:08:58.079Z,19.51
2018-09-12T03:11:26.572Z,19.49
2018-09-12T03:16:23.060Z,19.42
2018-09-12T03:18:52.234Z,19.40
2018-09-12T03:21:20.861Z,19.35
2018-09-12T03:23:49.916Z,19.33
2018-09-12T03:26:18.422Z,19.32
2018-09-12T03:28:46.888Z,19.28
2018-09-12T03:31:15.562Z,19.26
2018-09-12T03:33:44.125Z,19.23
2018-09-12T03:36:12.772Z,19.21
2018-09-12T03:38:41.778Z,19.19
2018-09-12T03:41:10.395Z,19.16
2018-09-12T03:43:39.500Z,19.12
2018-09-12T03:46:07.934Z,19.06
2018-09-12T03:48:36.696Z,19.04
2018-09-12T03:51:05.385Z,19.03
2018-09-12T03:53:34.635Z,19.05
2018-09-12T03:56:03.248Z,19.02
2018-09-12T03:58:32.345Z,19.03
2018-09-12T04:01:00.795Z,19.03
2018-09-12T04:03:29.308Z,19.02
2018-09-12T04:05:57.944Z,18.97
2018-09-12T04:08:26.441Z,18.94
2018-09-12T04:10:55.158Z,18.92
2018-09-12T04:13:23.617Z,18.88
2018-09-12T04:15:52.780Z,18.88
2018-09-12T04:18:21.296Z,18.83
2018-09-12T04:20:52.888Z,18.82
2018-09-12T04:23:21.527Z,18.83
2018-09-12T04:25:50.981Z,18.84
2018-09-12T04:28:19.692Z,18.82
2018-09-12T04:30:48.268Z,18.82
2018-09-12T04:33:16.941Z,18.82
2018-09-12T04:35:45.701Z,18.81
2018-09-12T04:38:14.385Z,18.78
2018-09-12T04:40:43.157Z,18.76
2018-09-12T04:43:11.648Z,18.72
2018-09-12T04:45:40.131Z,18.71
2018-09-12T04:48:09.305Z,18.70
2018-09-12T04:50:37.909Z,18.67
2018-09-12T04:53:06.902Z,18.64
2018-09-12T04:55:35.408Z,18.64
2018-09-12T04:58:04.264Z,18.61
2018-09-12T05:00:32.852Z,18.60
2018-09-12T05:03:01.329Z,18.60
2018-09-12T05:05:29.799Z,18.63
2018-09-12T05:07:58.286Z,18.62
2018-09-12T05:10:26.716Z,18.63
2018-09-12T05:12:55.605Z,18.64
2018-09-12T05:15:24.304Z,18.62
2018-09-12T05:17:52.776Z,18.60
2018-09-12T05:20:21.418Z,18.59
2018-09-12T05:22:50.234Z,18.58
2018-09-12T05:25:19.756Z,18.58
2018-09-12T05:27:48.229Z,18.56
2018-09-12T05:30:16.736Z,18.54
2018-09-12T05:32:45.817Z,18.56
2018-09-12T05:35:15.164Z,18.58
2018-09-12T05:37:43.803Z,18.60
2018-09-12T05:40:13.088Z,18.61
2018-09-12T05:42:41.889Z,18.63
2018-09-12T05:45:10.358Z,18.64
2018-09-12T05:47:39.169Z,18.65
2018-09-12T05:50:07.721Z,18.69
2018-09-12T05:52:36.142Z,18.69
2018-09-12T05:55:04.658Z,18.71
2018-09-12T05:57:33.283Z,18.72
2018-09-12T06:00:01.920Z,18.73
2018-09-12T06:02:30.345Z,18.74
2018-09-12T06:04:58.790Z,18.74
2018-09-12T06:07:27.352Z,18.73
2018-09-12T06:09:55.946Z,18.75
2018-09-12T06:12:24.514Z,18.78
2018-09-12T06:14:53.096Z,18.82
2018-09-12T06:17:21.718Z,18.85
2018-09-12T06:19:50.450Z,18.86
2018-09-12T06:22:18.896Z,18.83
2018-09-12T06:24:47.394Z,18.86
2018-09-12T06:27:17.341Z,18.94
2018-09-12T06:29:46.289Z,19.01
2018-09-12T06:32:14.795Z,19.09
2018-09-12T06:34:43.414Z,19.11
2018-09-12T06:37:11.897Z,19.18
2018-09-12T06:39:40.823Z,19.23
2018-09-12T06:42:09.508Z,19.33
2018-09-12T06:44:37.964Z,19.38
2018-09-12T06:47:06.873Z,19.38
2018-09-12T06:49:35.447Z,19.37
2018-09-12T06:52:04.722Z,19.39
2018-09-12T06:54:33.302Z,19.38
2018-09-12T06:57:02.463Z,19.37
2018-09-12T06:59:31.030Z,19.40
2018-09-12T07:01:59.576Z,19.48
2018-09-12T07:04:28.081Z,19.56
2018-09-12T07:06:56.687Z,19.62
2018-09-12T07:09:25.724Z,19.71
2018-09-12T07:11:54.211Z,19.75
2018-09-12T07:14:23.752Z,19.77
2018-09-12T07:16:52.341Z,19.75
2018-09-12T07:19:21.585Z,19.80
2018-09-12T07:21:50.717Z,19.85
2018-09-12T07:24:19.214Z,19.91
2018-09-12T07:26:47.661Z,19.89
2018-09-12T07:29:16.883Z,19.88
2018-09-12T07:31:45.448Z,19.93
2018-09-12T07:34:14.028Z,19.97
2018-09-12T07:36:42.497Z,19.93
2018-09-12T07:39:12.815Z,19.98
2018-09-12T07:41:42.253Z,20.05
2018-09-12T07:44:11.009Z,20.08
2018-09-12T07:46:46.125Z,20.11
2018-09-12T07:49:14.706Z,20.13
2018-09-12T07:51:43.457Z,20.17
2018-09-12T07:54:11.945Z,20.14
2018-09-12T07:56:40.674Z,20.16
2018-09-12T07:59:09.306Z,20.17
2018-09-12T08:01:37.977Z,20.17
2018-09-12T08:04:07.254Z,20.17
2018-09-12T08:06:35.765Z,20.15
2018-09-12T08:09:06.239Z,20.10
2018-09-12T08:11:34.807Z,20.06
2018-09-12T08:14:03.461Z,20.05
2018-09-12T08:16:31.968Z,20.08
2018-09-12T08:19:00.475Z,20.13
2018-09-12T08:21:29.104Z,20.20
2018-09-12T08:23:57.852Z,20.26
2018-09-12T08:26:26.361Z,20.27
2018-09-12T08:28:55.077Z,20.30
2018-09-12T08:31:23.724Z,20.36
2018-09-12T08:33:52.982Z,20.35
2018-09-12T08:36:21.865Z,20.30
2018-09-12T08:38:50.442Z,20.26
2018-09-12T08:41:19.795Z,20.32
2018-09-12T08:43:48.362Z,20.44
2018-09-12T08:46:17.123Z,20.52
2018-09-12T08:48:45.916Z,20.53
2018-09-12T08:51:15.074Z,20.57
2018-09-12T08:53:43.777Z,20.63
2018-09-12T08:56:12.224Z,20.73
2018-09-12T08:58:40.727Z,20.77
2018-09-12T09:01:09.362Z,20.82
2018-09-12T09:03:37.855Z,20.90
2018-09-12T09:06:07.092Z,21.01
2018-09-12T09:08:35.959Z,21.15
2018-09-12T09:11:04.553Z,21.20
2018-09-12T09:13:33.097Z,21.26
2018-09-12T09:16:02.254Z,21.28
2018-09-12T09:18:30.873Z,21.37
2018-09-12T09:20:59.467Z,21.43
2018-09-12T09:23:28.086Z,21.53
2018-09-12T09:25:56.654Z,21.65
2018-09-12T09:28:25.514Z,21.78
2018-09-12T09:30:54.127Z,21.84
2018-09-12T09:33:22.668Z,21.94
2018-09-12T09:35:51.277Z,22.07
2018-09-12T09:38:19.818Z,22.22
2018-09-12T09:40:48.469Z,22.33
2018-09-12T09:43:17.092Z,22.42
2018-09-12T09:45:45.620Z,22.53
2018-09-12T09:48:14.125Z,22.71
2018-09-12T09:50:42.759Z,22.84
2018-09-12T09:53:11.170Z,22.96
2018-09-12T09:55:39.753Z,22.99
2018-09-12T09:58:08.264Z,23.00
2018-09-12T10:00:42.028Z,23.06
2018-09-12T10:03:15.915Z,23.20
2018-09-12T10:05:49.846Z,23.32
2018-09-12T10:08:23.602Z,23.45
2018-09-12T10:10:52.884Z,23.62
2018-09-12T10:13:21.735Z,23.78
2018-09-12T10:15:50.826Z,23.91
2018-09-12T10:18:23.302Z,24.11
2018-09-12T10:20:52.011Z,24.32
2018-09-12T10:23:22.794Z,24.42
2018-09-12T10:25:51.621Z,24.34
2018-09-12T10:28:20.920Z,24.22
2018-09-12T10:30:50.044Z,24.01
2018-09-12T10:33:18.623Z,23.94
2018-09-12T10:35:49.282Z,23.90
2018-09-12T10:38:18.712Z,23.93
2018-09-12T10:40:48.189Z,23.95
2018-09-12T10:43:16.699Z,23.94
2018-09-12T10:45:45.329Z,24.07
2018-09-12T10:48:14.051Z,24.26
2018-09-12T10:50:42.460Z,24.53
2018-09-12T10:53:11.132Z,24.77
2018-09-12T10:55:39.651Z,24.91
2018-09-12T10:58:08.917Z,25.11
2018-09-12T11:00:37.544Z,25.15
2018-09-12T11:03:06.376Z,25.21
2018-09-12T11:05:35.345Z,25.26
2018-09-12T11:08:03.891Z,25.50
2018-09-12T11:10:32.706Z,25.75
2018-09-12T11:13:01.461Z,25.73
2018-09-12T11:15:30.084Z,25.71
2018-09-12T11:17:58.829Z,25.61
2018-09-12T11:20:27.398Z,25.46
2018-09-12T11:22:55.887Z,25.62
2018-09-12T11:25:24.350Z,25.98
2018-09-12T11:27:53.017Z,26.14
2018-09-12T11:30:22.397Z,26.24
2018-09-12T11:32:51.079Z,26.56
2018-09-12T11:35:19.571Z,26.79
2018-09-12T11:37:48.252Z,26.71
2018-09-12T11:40:19.107Z,26.65
2018-09-12T11:42:47.716Z,26.82
2018-09-12T11:45:16.313Z,27.18
2018-09-12T11:47:45.580Z,27.15
2018-09-12T11:50:14.404Z,26.99
2018-09-12T11:52:43.002Z,26.81
2018-09-12T11:55:12.247Z,26.69
2018-09-12T11:57:40.858Z,26.91
2018-09-12T12:00:09.810Z,27.50
2018-09-12T12:02:38.359Z,27.39
2018-09-12T12:05:07.842Z,26.82
2018-09-12T12:07:36.305Z,26.18
2018-09-12T12:10:04.856Z,25.61
2018-09-12T12:12:33.377Z,25.29
2018-09-12T12:15:01.972Z,25.58
2018-09-12T12:17:30.483Z,25.69
2018-09-12T12:19:59.033Z,25.60
2018-09-12T12:22:27.726Z,25.61
2018-09-12T12:24:56.238Z,25.57
2018-09-12T12:27:24.854Z,25.45
2018-09-12T12:29:53.366Z,25.37
2018-09-12T12:32:22.048Z,25.22
2018-09-12T12:34:51.567Z,25.11
2018-09-12T12:37:20.341Z,25.05
2018-09-12T12:39:49.588Z,24.95
2018-09-12T12:42:18.117Z,24.80
2018-09-12T12:44:46.633Z,24.66
2018-09-12T12:47:15.753Z,24.54
2018-09-12T12:49:44.486Z,24.34
2018-09-12T12:52:13.247Z,24.12
2018-09-12T12:54:42.533Z,24.11
2018-09-12T12:57:11.078Z,24.11
2018-09-12T12:59:39.660Z,24.15
2018-09-12T13:02:08.395Z,24.02
2018-09-12T13:04:36.974Z,23.97
2018-09-12T13:07:05.714Z,23.90
2018-09-12T13:09:34.444Z,23.77
2018-09-12T13:12:02.960Z,23.69
2018-09-12T13:14:31.496Z,23.48
2018-09-12T13:16:59.950Z,23.25
2018-09-12T13:19:28.839Z,23.20
2018-09-12T13:21:57.308Z,23.04
2018-09-12T13:24:25.756Z,22.78
2018-09-12T13:26:54.388Z,22.60
2018-09-12T13:29:23.054Z,22.63
2018-09-12T13:31:51.622Z,22.71
2018-09-12T13:34:20.142Z,22.60
2018-09-12T13:36:48.611Z,22.50
2018-09-12T13:39:18.048Z,22.40
2018-09-12T13:41:46.692Z,22.17
2018-09-12T13:44:15.610Z,22.01
2018-09-12T13:46:44.025Z,22.00
2018-09-12T13:49:13.763Z,21.97
2018-09-12T13:51:42.245Z,21.83
2018-09-12T13:54:11.896Z,21.62
2018-09-12T13:56:40.619Z,21.52
2018-09-12T13:59:09.153Z,21.44
2018-09-12T14:01:37.629Z,21.29
2018-09-12T14:04:07.058Z,21.14
2018-09-12T14:06:35.540Z,21.23
2018-09-12T14:09:04.988Z,21.26
2018-09-12T14:11:33.535Z,21.17
2018-09-12T14:14:02.219Z,20.93
2018-09-12T14:16:31.267Z,20.83
2018-09-12T14:19:00.136Z,20.89
2018-09-12T14:21:28.931Z,20.95
2018-09-12T14:23:57.657Z,20.74
2018-09-12T14:26:26.223Z,20.69
2018-09-12T14:28:55.644Z,20.66
2018-09-12T14:31:24.156Z,20.52
2018-09-12T14:33:52.710Z,20.41
2018-09-12T14:36:21.653Z,20.06
2018-09-12T14:38:50.419Z,19.87
2018-09-12T14:41:19.232Z,19.84
2018-09-12T14:43:47.686Z,19.87
2018-09-12T14:46:16.951Z,19.80
2018-09-12T14:48:45.777Z,19.54
2018-09-12T14:51:14.664Z,19.53
2018-09-12T14:53:43.213Z,19.51
2018-09-12T14:56:11.783Z,19.51
2018-09-12T14:58:40.714Z,19.26
2018-09-12T15:01:09.228Z,19.28
2018-09-12T15:03:37.802Z,19.38
2018-09-12T15:06:06.312Z,19.46
2018-09-12T15:08:35.098Z,19.48
2018-09-12T15:11:04.478Z,19.25
2018-09-12T15:13:33.545Z,19.14
2018-09-12T15:16:03.047Z,19.07
2018-09-12T15:18:32.737Z,18.80
2018-09-12T15:21:01.253Z,18.61
2018-09-12T15:23:31.331Z,18.62
2018-09-12T15:26:01.018Z,18.49
2018-09-12T15:28:30.338Z,18.35
2018-09-12T15:30:59.455Z,18.33
2018-09-12T15:33:28.550Z,18.29
2018-09-12T15:35:57.034Z,18.25
2018-09-12T15:38:25.812Z,18.21
2018-09-12T15:40:54.448Z,18.18
2018-09-12T15:43:22.955Z,18.18
2018-09-12T15:45:51.427Z,18.21
2018-09-12T15:48:20.058Z,18.26
2018-09-12T15:50:49.198Z,18.24
2018-09-12T15:53:18.045Z,18.28
2018-09-12T15:55:46.696Z,18.42
2018-09-12T15:58:15.387Z,18.53
2018-09-12T16:00:43.926Z,18.54
2018-09-12T16:03:12.590Z,18.59
2018-09-12T16:05:42.222Z,18.51
2018-09-12T16:08:11.307Z,18.33
2018-09-12T16:10:39.770Z,18.20
2018-09-12T16:13:08.289Z,18.22
2018-09-12T16:15:37.188Z,18.31
2018-09-12T16:18:06.469Z,18.41
2018-09-12T16:20:35.327Z,18.48
2018-09-12T16:23:04.123Z,18.52
2018-09-12T16:25:33.268Z,18.39
2018-09-12T16:28:02.559Z,18.27
2018-09-12T16:30:31.293Z,18.22
2018-09-12T16:53:08.812Z,18.04
2018-09-12T16:55:40.983Z,18.00
2018-09-12T16:58:09.885Z,18.12
2018-09-12T17:00:39.984Z,18.21
2018-09-12T17:03:08.589Z,18.16
2018-09-12T17:05:37.916Z,18.05
2018-09-12T17:08:06.775Z,17.91
2018-09-12T17:10:36.293Z,17.83
2018-09-12T17:13:05.271Z,17.73
2018-09-12T17:15:34.141Z,17.65
2018-09-12T17:18:03.042Z,17.65
2018-09-12T17:20:31.884Z,17.69
2018-09-12T17:23:00.758Z,17.72
2018-09-12T17:25:29.411Z,17.75
2018-09-12T17:28:03.417Z,17.71
2018-09-12T17:30:42.412Z,17.72
2018-09-12T17:33:13.829Z,17.67
2018-09-12T17:35:43.337Z,17.55
2018-09-12T17:38:12.827Z,17.58
2018-09-12T17:40:42.467Z,17.67
2018-09-12T17:43:12.179Z,17.66
2018-09-12T17:45:42.632Z,17.69
2018-09-12T17:48:12.475Z,17.64
2018-09-12T17:50:41.781Z,17.50
2018-09-12T17:53:10.944Z,17.43
2018-09-12T17:55:39.711Z,17.42
2018-09-12T17:58:09.284Z,17.42
2018-09-12T18:00:38.436Z,17.53
2018-09-12T18:03:07.557Z,17.56
2018-09-12T18:05:36.531Z,17.63
2018-09-12T18:08:05.247Z,17.59
2018-09-12T18:10:33.925Z,17.51
2018-09-12T18:13:03.673Z,17.49
2018-09-12T18:15:34.651Z,17.40
2018-09-12T18:18:03.420Z,17.29
2018-09-12T18:20:32.088Z,17.32
2018-09-12T18:23:01.700Z,17.36
2018-09-12T18:25:30.382Z,17.37
2018-09-12T18:28:00.376Z,17.45
2018-09-12T18:30:33.621Z,17.37
2018-09-12T18:33:03.413Z,17.29
2018-09-12T18:35:32.290Z,17.41
2018-09-12T18:38:01.796Z,17.44
2018-09-12T18:40:30.617Z,17.44
2018-09-12T18:43:00.689Z,17.41
2018-09-12T18:45:29.761Z,17.34
2018-09-12T18:47:59.013Z,17.32
2018-09-12T18:50:27.862Z,17.40
2018-09-12T18:52:56.492Z,17.43
2018-09-12T18:55:25.535Z,17.41
2018-09-12T18:58:00.102Z,17.38
2018-09-12T19:00:28.772Z,17.28
2018-09-12T19:02:57.987Z,17.23
2018-09-12T19:05:27.000Z,17.21
2018-09-12T19:07:56.329Z,17.22
2018-09-12T19:10:25.078Z,17.19
2018-09-12T19:12:53.787Z,17.15
2018-09-12T19:15:22.293Z,17.11
2018-09-12T19:17:51.795Z,17.16
2018-09-12T19:20:20.617Z,17.14
2018-09-12T19:22:49.955Z,17.21
2018-09-12T19:25:18.672Z,17.23
2018-09-12T19:27:48.183Z,17.15
2018-09-12T19:30:18.392Z,17.06
2018-09-12T19:32:47.563Z,17.08
2018-09-12T19:35:16.635Z,17.09
2018-09-12T19:37:45.524Z,17.14
2018-09-12T19:42:51.324Z,17.21
2018-09-12T19:45:20.061Z,17.22
2018-09-12T19:47:49.407Z,17.14
2018-09-12T19:50:18.383Z,17.04
2018-09-12T19:52:51.199Z,17.05
2018-09-12T19:55:26.264Z,17.05
2018-09-12T19:57:56.833Z,16.99
2018-09-12T20:00:25.977Z,17.00
2018-09-12T20:02:54.764Z,16.97
2018-09-12T20:05:23.307Z,16.91
2018-09-12T20:07:58.649Z,16.92
2018-09-12T20:10:27.971Z,17.00
2018-09-12T20:12:56.600Z,17.11
2018-09-12T20:15:25.253Z,17.20
2018-09-12T20:17:54.105Z,17.23
2018-09-12T20:20:22.952Z,17.23
2018-09-12T20:22:51.829Z,17.21
2018-09-12T20:25:20.541Z,17.26
2018-09-12T20:27:49.178Z,17.16
2018-09-12T20:30:18.890Z,17.14
2018-09-12T20:32:48.023Z,17.17
2018-09-12T20:35:16.693Z,17.19
2018-09-12T20:37:45.277Z,17.16
2018-09-12T20:40:14.071Z,17.10
2018-09-12T20:42:42.602Z,17.06
2018-09-12T20:45:11.232Z,17.06
2018-09-12T20:47:40.038Z,17.12
2018-09-12T20:50:08.633Z,17.18
2018-09-12T20:52:37.707Z,17.18
2018-09-12T20:55:06.889Z,17.21
2018-09-12T20:57:35.469Z,17.28
2018-09-12T21:00:04.121Z,17.28
2018-09-12T21:02:32.985Z,17.28
2018-09-12T21:05:01.552Z,17.23
2018-09-12T21:07:30.163Z,17.16
2018-09-12T21:09:58.675Z,17.15
2018-09-12T21:12:27.256Z,17.22
2018-09-12T21:14:56.125Z,17.20
2018-09-12T21:17:25.461Z,17.14
2018-09-12T21:19:54.024Z,17.19
2018-09-12T21:22:22.716Z,17.23
2018-09-12T21:24:52.186Z,17.20
2018-09-12T21:27:21.293Z,17.21
2018-09-12T21:29:50.190Z,17.22
2018-09-12T21:32:18.962Z,17.22
2018-09-12T21:34:47.745Z,17.27
2018-09-12T21:37:16.262Z,17.21
2018-09-12T21:39:44.810Z,17.08
2018-09-12T21:42:13.566Z,17.06
2018-09-12T21:44:42.156Z,17.09
2018-09-12T21:47:10.862Z,17.07
2018-09-12T21:49:39.292Z,17.04
2018-09-12T21:52:07.818Z,17.03
2018-09-12T21:54:36.570Z,17.00
2018-09-12T21:57:05.284Z,17.02
2018-09-12T21:59:33.845Z,17.05
2018-09-12T22:02:02.355Z,17.09
2018-09-12T22:04:31.139Z,17.17
2018-09-12T22:07:00.243Z,17.20
2018-09-12T22:09:28.948Z,17.07
2018-09-12T22:11:57.500Z,16.95
2018-09-12T22:14:25.968Z,16.91
2018-09-12T22:16:54.413Z,16.90
2018-09-12T22:19:23.688Z,16.91
2018-09-12T22:21:52.289Z,16.85
2018-09-12T22:24:20.983Z,16.81
2018-09-12T22:26:50.388Z,16.85
2018-09-12T22:29:19.012Z,16.86
2018-09-12T22:31:47.541Z,16.82
2018-09-12T22:34:16.158Z,16.86
2018-09-12T22:36:45.536Z,16.90
2018-09-12T22:39:14.045Z,16.85
2018-09-12T22:41:42.499Z,16.76
2018-09-12T22:44:10.962Z,16.74
2018-09-12T22:46:39.557Z,16.75
2018-09-12T22:49:08.341Z,16.84
2018-09-12T22:51:36.904Z,16.90
2018-09-12T22:54:05.426Z,16.93
2018-09-12T22:56:34.064Z,16.91
2018-09-12T22:59:02.601Z,16.89
2018-09-12T23:01:31.233Z,16.91
2018-09-12T23:04:00.387Z,16.88
2018-09-12T23:06:28.897Z,16.85
2018-09-12T23:08:57.498Z,16.81
2018-09-12T23:11:25.982Z,16.75
2018-09-12T23:13:54.425Z,16.76
2018-09-12T23:16:23.627Z,16.75
2018-09-12T23:18:52.141Z,16.78
2018-09-12T23:21:20.720Z,16.76
2018-09-12T23:23:49.309Z,16.78
2018-09-12T23:26:17.816Z,16.70
2018-09-12T23:28:46.364Z,16.64
2018-09-12T23:31:15.080Z,16.58
2018-09-12T23:33:43.538Z,16.55
2018-09-12T23:36:12.094Z,16.56
2018-09-12T23:38:40.760Z,16.57
2018-09-12T23:41:09.350Z,16.65
2018-09-12T23:43:38.074Z,16.62
2018-09-12T23:46:06.746Z,16.65
2018-09-12T23:48:35.286Z,16.65
2018-09-12T23:51:03.924Z,16.59
2018-09-12T23:53:32.716Z,16.53
2018-09-12T23:56:01.623Z,16.44
2018-09-12T23:58:30.888Z,16.42
